Time;durP1;ratioP1;P1;durP2;ratioP2;P2;SDS_P1;SDS_P2;PMS_P1;PMS_P2;Temp;Humidity;BMP_temperature;BMP_pressure;BME280_temperature;BME280_humidity;BME280_pressure;Samples;Min_cycle;Max_cycle;Signal;HPM_P1;HPM_P2
2023/06/15 00:02:16;;;;;;;3.00;1.42;;;;;;;18.16;53.45;101651.81;6200970;28;20054;-72
2023/06/15 00:05:17;;;;;;;1.48;1.33;;;;;;;18.08;54.34;101656.00;6201786;28;20054;-72
2023/06/15 00:08:19;;;;;;;2.50;1.20;;;;;;;18.02;54.05;101651.94;6201624;28;20054;-72
2023/06/15 00:11:22;;;;;;;1.63;1.20;;;;;;;18.06;54.13;101655.25;6201022;28;20663;-72
2023/06/15 00:14:23;;;;;;;3.13;1.27;;;;;;;18.00;53.90;101654.72;6201509;28;20042;-72
2023/06/15 00:17:25;;;;;;;2.95;1.42;;;;;;;17.97;54.42;101652.28;6201650;28;20058;-72
2023/06/15 00:20:28;;;;;;;2.70;1.42;;;;;;;17.90;54.55;101653.69;6204298;28;20047;-72
2023/06/15 00:23:29;;;;;;;3.72;1.63;;;;;;;17.86;54.93;101654.84;6204954;28;20042;-72
2023/06/15 00:26:32;;;;;;;1.70;1.30;;;;;;;17.86;55.05;101654.84;6205958;28;20070;-72
2023/06/15 00:29:33;;;;;;;4.32;1.60;;;;;;;17.75;54.88;101652.91;6206189;28;20058;-72
2023/06/15 00:32:34;;;;;;;4.00;1.60;;;;;;;17.69;55.69;101649.81;6203846;28;20356;-72
2023/06/15 00:35:36;;;;;;;1.73;1.15;;;;;;;17.66;56.11;101652.66;6206118;28;20046;-72
2023/06/15 00:38:37;;;;;;;3.13;1.52;;;;;;;17.62;56.21;101651.16;6206202;28;20088;-72
2023/06/15 00:41:44;;;;;;;3.00;1.60;;;;;;;17.50;56.52;101655.53;6205310;28;20050;-72
2023/06/15 00:44:45;;;;;;;2.15;1.50;;;;;;;17.51;56.33;101654.56;6205943;28;20355;-72
2023/06/15 00:47:47;;;;;;;3.35;1.45;;;;;;;17.44;56.92;101655.94;6205737;28;20359;-72
2023/06/15 00:50:48;;;;;;;4.60;1.40;;;;;;;17.36;57.18;101659.13;6205329;28;20046;-72
2023/06/15 00:53:50;;;;;;;2.45;1.38;;;;;;;17.32;57.42;101654.13;6204041;28;20046;-72
2023/06/15 00:56:53;;;;;;;4.70;1.67;;;;;;;17.23;57.76;101655.59;6205799;28;20050;-72
2023/06/15 00:59:55;;;;;;;5.40;1.40;;;;;;;17.15;58.37;101649.94;6204983;28;20462;-72
2023/06/15 01:02:57;;;;;;;1.58;1.23;;;;;;;17.17;58.48;101662.16;6205554;28;20129;-72
2023/06/15 01:05:59;;;;;;;2.05;1.05;;;;;;;17.14;58.56;101665.00;6205510;28;20137;-72
2023/06/15 01:09:02;;;;;;;4.00;1.70;;;;;;;17.09;58.92;101660.97;6205243;28;20053;-72
2023/06/15 01:12:11;;;;;;;3.55;1.60;;;;;;;17.03;59.20;101658.69;6204018;28;20062;-72
2023/06/15 01:15:13;;;;;;;4.32;1.90;;;;;;;16.93;59.47;101664.63;6190535;28;20047;-72
2023/06/15 01:18:20;;;;;;;5.97;1.52;;;;;;;16.84;59.62;101664.38;6204178;28;20073;-72
2023/06/15 01:21:21;;;;;;;2.03;1.50;;;;;;;16.78;59.98;101659.47;6196369;28;20043;-72
2023/06/15 01:24:31;;;;;;;3.47;1.40;;;;;;;16.70;59.41;101660.75;6182052;28;20043;-72
2023/06/15 01:27:37;;;;;;;1.60;1.40;;;;;;;16.64;60.20;101660.31;6180630;28;20057;-72
2023/06/15 01:30:41;;;;;;;3.95;1.60;;;;;;;16.61;59.69;101656.06;6179949;28;20059;-72
2023/06/15 01:33:46;;;;;;;2.85;1.40;;;;;;;16.63;60.10;101653.31;6180617;28;20193;-72
2023/06/15 01:36:48;;;;;;;6.70;1.60;;;;;;;16.69;60.13;101663.53;6180547;28;20051;-72
2023/06/15 01:39:49;;;;;;;2.55;1.70;;;;;;;16.72;60.21;101661.56;6193341;28;20367;-72
2023/06/15 01:42:53;;;;;;;8.10;1.65;;;;;;;16.69;60.22;101656.41;6204789;28;20054;-73
2023/06/15 01:45:56;;;;;;;3.75;1.77;;;;;;;16.66;60.22;101658.41;6204557;28;20440;-72
2023/06/15 01:48:57;;;;;;;2.03;1.40;;;;;;;16.68;60.00;101660.03;6204611;28;20057;-72
2023/06/15 01:51:59;;;;;;;3.03;1.60;;;;;;;16.72;59.69;101658.91;6203859;28;20061;-72
2023/06/15 01:55:00;;;;;;;4.78;1.50;;;;;;;16.67;59.32;101654.81;6198934;28;20050;-72
2023/06/15 01:58:03;;;;;;;3.13;1.75;;;;;;;16.61;60.36;101657.84;6188607;28;20162;-72
2023/06/15 02:01:05;;;;;;;2.00;1.33;;;;;;;16.55;60.57;101656.44;6201027;28;20047;-72
2023/06/15 02:04:06;;;;;;;3.60;1.50;;;;;;;16.49;60.61;101655.06;6204288;28;20046;-72
2023/06/15 02:07:07;;;;;;;1.52;1.35;;;;;;;16.43;61.05;101651.91;6203970;28;20054;-72
2023/06/15 02:10:10;;;;;;;2.45;1.48;;;;;;;16.42;60.77;101656.38;6203552;28;20065;-72
2023/06/15 02:13:13;;;;;;;2.70;1.42;;;;;;;16.31;61.23;101655.38;6197151;28;20050;-72
2023/06/15 02:16:15;;;;;;;2.72;1.70;;;;;;;16.21;61.27;101658.59;6195590;28;20176;-72
2023/06/15 02:19:21;;;;;;;2.35;1.70;;;;;;;16.19;61.82;101656.97;6203778;28;20054;-72
2023/06/15 02:22:22;;;;;;;1.58;1.30;;;;;;;16.12;62.16;101658.28;6203300;28;20053;-72
2023/06/15 02:25:25;;;;;;;3.28;2.25;;;;;;;16.07;62.22;101658.56;6187995;28;20053;-72
2023/06/15 02:28:27;;;;;;;4.95;2.13;;;;;;;16.01;62.13;101658.13;6179662;28;20058;-72
2023/06/15 02:31:30;;;;;;;3.00;1.63;;;;;;;15.93;62.66;101653.28;6178881;28;20055;-72
2023/06/15 02:34:32;;;;;;;3.55;1.98;;;;;;;15.93;63.30;101661.22;6179166;28;20043;-72
2023/06/15 02:37:34;;;;;;;3.15;1.58;;;;;;;15.94;63.32;101662.91;6179122;28;20047;-72
2023/06/15 02:40:35;;;;;;;4.07;1.58;;;;;;;15.93;63.34;101662.06;6178458;28;20054;-72
2023/06/15 02:43:38;;;;;;;4.03;1.92;;;;;;;15.91;63.37;101663.97;6178450;28;20051;-72
2023/06/15 02:46:39;;;;;;;2.25;1.60;;;;;;;15.88;63.20;101661.50;6178917;28;20050;-72
2023/06/15 02:49:40;;;;;;;5.18;2.20;;;;;;;15.86;63.44;101666.06;6178947;28;20360;-72
2023/06/15 02:52:45;;;;;;;7.15;1.80;;;;;;;15.79;63.68;101666.50;6178090;28;20360;-72
2023/06/15 02:55:46;;;;;;;3.95;1.60;;;;;;;15.68;64.00;101670.69;6188332;28;20065;-72
2023/06/15 02:58:53;;;;;;;3.38;1.80;;;;;;;15.68;64.11;101669.81;6202446;28;20050;-72
2023/06/15 03:01:55;;;;;;;4.60;2.60;;;;;;;15.64;64.28;101678.91;6202231;28;20078;-72
2023/06/15 03:04:56;;;;;;;5.15;1.60;;;;;;;15.58;64.23;101677.44;6202136;28;20049;-72
2023/06/15 03:07:58;;;;;;;4.10;2.28;;;;;;;15.59;64.56;101678.28;6194262;28;20053;-72
2023/06/15 03:10:59;;;;;;;2.85;1.48;;;;;;;15.50;64.90;101677.03;6195560;28;20051;-72
2023/06/15 03:14:02;;;;;;;4.00;2.10;;;;;;;15.40;65.58;101684.69;6191855;28;20061;-72
2023/06/15 03:17:04;;;;;;;4.40;2.03;;;;;;;15.32;65.93;101678.97;6191929;28;20054;-72
2023/06/15 03:20:10;;;;;;;4.00;1.75;;;;;;;15.34;66.43;101679.72;6190610;28;20087;-72
2023/06/15 03:23:12;;;;;;;2.72;1.70;;;;;;;15.40;66.26;101681.19;6186576;28;20054;-72
2023/06/15 03:26:13;;;;;;;3.30;2.05;;;;;;;15.38;66.20;101681.25;6188854;28;20047;-72
2023/06/15 03:29:16;;;;;;;3.60;2.03;;;;;;;15.33;66.68;101687.75;6185622;28;20046;-72
2023/06/15 03:32:17;;;;;;;4.30;1.95;;;;;;;15.29;66.78;101692.38;6192840;28;20050;-72
2023/06/15 03:35:19;;;;;;;3.13;2.00;;;;;;;15.32;67.25;101691.38;6187401;28;20053;-72
2023/06/15 03:38:21;;;;;;;3.88;2.40;;;;;;;15.33;67.36;101688.63;6188875;28;20050;-72
2023/06/15 03:41:22;;;;;;;4.65;2.00;;;;;;;15.36;67.38;101691.09;6187247;28;20462;-72
2023/06/15 03:44:25;;;;;;;1.95;1.60;;;;;;;15.42;67.32;101688.06;6179870;28;20351;-72
2023/06/15 03:47:26;;;;;;;3.03;1.80;;;;;;;15.43;66.94;101696.88;6193977;28;20046;-72
2023/06/15 03:50:27;;;;;;;2.50;1.55;;;;;;;15.44;67.33;101696.81;6200915;28;20178;-72
2023/06/15 03:53:29;;;;;;;3.28;1.80;;;;;;;15.42;66.96;101697.81;6193203;28;20356;-72
2023/06/15 03:56:30;;;;;;;4.35;1.55;;;;;;;15.37;66.71;101698.09;6193505;28;20124;-72
2023/06/15 03:59:33;;;;;;;2.60;1.65;;;;;;;15.35;67.39;101697.34;6177470;28;20061;-72
2023/06/15 04:02:35;;;;;;;3.40;2.10;;;;;;;15.38;67.65;101702.44;6171259;28;20050;-72
2023/06/15 04:05:36;;;;;;;7.18;2.75;;;;;;;15.43;67.73;101704.81;6172850;28;20051;-72
2023/06/15 04:08:37;;;;;;;6.30;1.90;;;;;;;15.45;67.27;101708.25;6171491;28;20042;-72
2023/06/15 04:11:39;;;;;;;6.80;1.75;;;;;;;15.45;66.83;101706.44;6175547;28;20042;-72
2023/06/15 04:14:42;;;;;;;2.63;1.70;;;;;;;15.47;66.67;101704.53;6177812;28;20200;-72
2023/06/15 04:17:43;;;;;;;6.82;1.70;;;;;;;15.46;66.27;101707.28;6175077;28;20054;-72
2023/06/15 04:20:44;;;;;;;3.22;1.77;;;;;;;15.46;66.66;101707.28;6174919;28;20636;-72
2023/06/15 04:23:46;;;;;;;2.95;1.73;;;;;;;15.47;66.96;101715.16;6171424;28;20560;-72
2023/06/15 04:26:47;;;;;;;2.97;1.83;;;;;;;15.43;68.09;101716.25;6167660;28;20053;-72
2023/06/15 04:29:52;;;;;;;5.53;2.20;;;;;;;15.47;67.44;101730.19;6180699;28;20063;-72
2023/06/15 04:32:57;;;;;;;3.10;1.65;;;;;;;15.45;66.84;101724.13;6186791;28;20054;-72
2023/06/15 04:36:01;;;;;;;10.85;2.42;;;;;;;15.49;67.83;101723.03;6188112;28;20049;-72
2023/06/15 04:39:02;;;;;;;3.15;2.00;;;;;;;15.43;67.27;101720.72;6177012;28;20055;-72
2023/06/15 04:42:04;;;;;;;4.30;2.35;;;;;;;15.48;67.60;101718.66;6172270;28;20128;-72
2023/06/15 04:45:09;;;;;;;4.80;2.10;;;;;;;15.55;67.85;101724.47;6174840;28;20050;-72
2023/06/15 04:48:11;;;;;;;4.15;2.20;;;;;;;15.52;67.83;101727.28;6185785;28;20053;-72
2023/06/15 04:51:13;;;;;;;6.00;2.42;;;;;;;15.50;67.54;101721.22;6187651;28;20057;-72
2023/06/15 04:54:14;;;;;;;3.20;1.90;;;;;;;15.56;67.81;101727.00;6186691;28;20050;-72
2023/06/15 04:57:16;;;;;;;3.35;1.98;;;;;;;15.64;68.06;101731.91;6200587;28;20050;-72
2023/06/15 05:00:20;;;;;;;2.95;2.08;;;;;;;15.67;66.87;101721.13;6200402;28;20054;-72
2023/06/15 05:03:21;;;;;;;4.28;2.20;;;;;;;15.57;67.27;101726.06;6201116;28;20060;-72
2023/06/15 05:06:23;;;;;;;4.50;2.13;;;;;;;15.57;67.83;101720.75;6203892;28;20050;-72
2023/06/15 05:09:24;;;;;;;4.28;2.00;;;;;;;15.65;69.70;101734.44;6205314;28;20439;-72
2023/06/15 05:12:26;;;;;;;4.05;1.85;;;;;;;15.77;70.67;101730.22;6204556;28;20618;-72
2023/06/15 05:15:28;;;;;;;4.82;2.03;;;;;;;15.84;69.57;101734.19;6205339;28;20049;-72
2023/06/15 05:18:30;;;;;;;3.25;2.03;;;;;;;15.83;68.57;101734.31;6205091;28;20046;-72
2023/06/15 05:21:31;;;;;;;4.15;2.38;;;;;;;15.87;70.21;101733.19;6203759;28;20046;-72
2023/06/15 05:24:34;;;;;;;4.07;2.35;;;;;;;15.86;70.54;101731.47;6201777;28;20046;-72
2023/06/15 05:27:36;;;;;;;4.20;2.25;;;;;;;15.90;69.47;101741.81;6180513;28;20475;-74
2023/06/15 05:30:39;;;;;;;5.60;2.33;;;;;;;15.92;69.47;101734.59;6180257;28;20051;-74
2023/06/15 05:33:40;;;;;;;3.88;1.75;;;;;;;15.97;70.07;101737.81;6182098;28;20055;-74
2023/06/15 05:36:43;;;;;;;3.42;1.98;;;;;;;16.01;70.13;101738.50;6204778;28;20132;-75
2023/06/15 05:39:45;;;;;;;3.05;2.20;;;;;;;16.04;70.29;101738.31;6204699;28;20116;-74
2023/06/15 05:42:46;;;;;;;5.55;2.25;;;;;;;16.09;71.02;101740.69;6204768;28;20615;-75
2023/06/15 05:45:49;;;;;;;3.15;2.08;;;;;;;16.14;71.45;101739.47;6204534;28;20427;-75
2023/06/15 05:48:51;;;;;;;4.38;1.63;;;;;;;16.18;71.38;101735.69;6192016;28;20050;-74
2023/06/15 05:51:52;;;;;;;3.33;1.67;;;;;;;16.21;70.79;101737.28;6189070;28;20046;-74
2023/06/15 05:54:54;;;;;;;3.97;1.70;;;;;;;16.26;70.51;101743.19;6193055;28;20062;-74
2023/06/15 05:57:55;;;;;;;3.35;1.95;;;;;;;16.28;70.13;101741.28;6189278;28;20050;-74
2023/06/15 06:00:58;;;;;;;3.47;2.22;;;;;;;16.30;70.38;101742.03;6191914;28;20046;-75
2023/06/15 06:04:00;;;;;;;3.55;2.03;;;;;;;16.36;70.34;101746.13;6189122;28;20062;-75
2023/06/15 06:07:02;;;;;;;2.95;1.95;;;;;;;16.36;71.99;101741.66;6191060;28;20054;-74
2023/06/15 06:10:05;;;;;;;7.30;2.13;;;;;;;16.40;72.50;101740.53;6188377;28;20054;-75
2023/06/15 06:13:06;;;;;;;4.53;2.58;;;;;;;16.47;72.20;101735.69;6190461;28;20081;-74
2023/06/15 06:16:09;;;;;;;2.20;1.58;;;;;;;16.54;71.35;101739.69;6188957;28;20062;-75
2023/06/15 06:19:10;;;;;;;5.70;2.08;;;;;;;16.59;71.17;101729.63;6188534;28;20050;-74
2023/06/15 06:22:12;;;;;;;3.28;1.80;;;;;;;16.65;71.17;101731.88;6190606;28;20189;-74
2023/06/15 06:25:13;;;;;;;2.60;1.75;;;;;;;16.72;71.13;101741.19;6188675;28;20046;-74
2023/06/15 06:28:14;;;;;;;3.53;1.85;;;;;;;16.83;69.94;101731.69;6188745;28;20058;-74
2023/06/15 06:31:17;;;;;;;2.83;2.00;;;;;;;16.88;70.97;101726.94;6190239;28;20051;-74
2023/06/15 06:34:18;;;;;;;3.95;2.00;;;;;;;16.92;70.12;101726.66;6189168;28;20462;-73
2023/06/15 06:37:20;;;;;;;3.47;1.40;;;;;;;16.98;69.02;101720.06;6189800;28;20062;-73
2023/06/15 06:40:21;;;;;;;3.58;1.70;;;;;;;17.04;69.24;101727.66;6188624;28;20117;-73
2023/06/15 06:43:23;;;;;;;2.70;2.10;;;;;;;17.10;69.56;101731.72;6189979;28;20324;-74
2023/06/15 06:46:25;;;;;;;10.15;5.10;;;;;;;17.12;71.27;101736.00;6187969;28;20042;-73
2023/06/15 06:49:27;;;;;;;11.88;4.50;;;;;;;17.16;71.65;101726.84;6198833;28;20051;-74
2023/06/15 06:52:28;;;;;;;4.03;2.50;;;;;;;17.20;72.09;101732.81;6201255;28;20061;-74
2023/06/15 06:55:30;;;;;;;2.50;1.70;;;;;;;17.26;71.75;101732.44;6191776;28;20043;-73
2023/06/15 06:58:31;;;;;;;3.63;1.80;;;;;;;17.29;71.52;101734.88;6201735;28;20061;-74
2023/06/15 07:01:34;;;;;;;2.67;1.85;;;;;;;17.38;70.95;101731.59;6201305;28;20061;-74
2023/06/15 07:04:35;;;;;;;3.78;1.90;;;;;;;17.46;70.19;101723.97;6195676;28;20459;-73
2023/06/15 07:07:37;;;;;;;4.07;2.20;;;;;;;17.58;65.59;101729.44;6193454;28;20444;-74
2023/06/15 07:10:38;;;;;;;3.03;1.70;;;;;;;17.66;66.83;101722.63;6188665;28;20462;-74
2023/06/15 07:13:39;;;;;;;2.67;1.70;;;;;;;17.65;67.34;101725.41;6194304;28;20070;-73
2023/06/15 07:16:42;;;;;;;2.80;1.98;;;;;;;17.67;68.36;101729.69;6202364;28;20065;-74
2023/06/15 07:19:43;;;;;;;5.72;1.50;;;;;;;17.73;68.31;101728.41;6197467;28;20046;-73
2023/06/15 07:22:45;;;;;;;2.83;1.67;;;;;;;17.75;67.49;101724.69;6196791;28;20335;-73
2023/06/15 07:25:46;;;;;;;2.50;1.40;;;;;;;17.79;65.83;101725.34;6198100;28;20458;-74
2023/06/15 07:28:47;;;;;;;4.00;1.90;;;;;;;17.84;64.35;101722.38;6198378;28;20144;-72
2023/06/15 07:31:50;;;;;;;2.53;1.38;;;;;;;17.89;64.88;101722.91;6195894;28;20050;-74
2023/06/15 07:34:52;;;;;;;1.95;1.45;;;;;;;17.93;65.14;101725.25;6198510;28;20050;-74
2023/06/15 07:37:53;;;;;;;4.40;1.45;;;;;;;18.07;60.49;101721.63;6196832;28;20420;-74
2023/06/15 07:40:54;;;;;;;2.65;1.48;;;;;;;18.11;58.62;101719.63;6194750;28;20355;-74
2023/06/15 07:43:56;;;;;;;2.95;1.52;;;;;;;18.17;60.61;101721.88;6190839;28;20057;-74
2023/06/15 07:46:58;;;;;;;3.08;1.40;;;;;;;18.24;60.00;101721.31;6199656;28;20050;-73
2023/06/15 07:50:00;;;;;;;4.57;1.30;;;;;;;18.37;59.61;101720.47;6193047;28;20050;-74
2023/06/15 07:53:01;;;;;;;4.40;1.88;;;;;;;18.42;59.01;101721.84;6192565;28;20054;-74
2023/06/15 07:56:03;;;;;;;8.38;1.55;;;;;;;18.51;56.17;101723.00;6200888;28;20046;-73
2023/06/15 07:59:04;;;;;;;2.90;1.70;;;;;;;18.53;56.83;101721.09;6193336;28;20061;-73
2023/06/15 08:02:07;;;;;;;2.33;1.10;;;;;;;18.59;57.85;101717.97;6201097;28;20062;-74
2023/06/15 08:05:10;;;;;;;2.17;1.70;;;;;;;18.64;57.33;101712.31;6200848;28;20496;-74
2023/06/15 08:08:11;;;;;;;2.90;1.70;;;;;;;18.85;52.02;101710.81;6189936;28;20051;-74
2023/06/15 08:11:12;;;;;;;6.22;1.35;;;;;;;18.90;54.38;101715.81;6191360;28;20057;-74
2023/06/15 08:14:14;;;;;;;3.08;1.83;;;;;;;18.92;55.17;101713.88;6201150;28;20046;-73
2023/06/15 08:17:17;;;;;;;3.35;1.60;;;;;;;18.95;56.22;101714.50;6196256;28;20054;-73
2023/06/15 08:20:19;;;;;;;3.88;2.05;;;;;;;19.04;51.49;101714.81;6192430;28;20049;-73
2023/06/15 08:23:21;;;;;;;1.98;1.45;;;;;;;19.04;53.49;101706.81;6187501;28;20050;-73
2023/06/15 08:26:23;;;;;;;3.88;1.80;;;;;;;19.22;51.88;101708.97;6176854;28;20053;-73
2023/06/15 08:29:24;;;;;;;4.10;1.77;;;;;;;19.55;49.47;101709.19;6196099;28;20050;-73
2023/06/15 08:32:27;;;;;;;3.38;1.25;;;;;;;19.59;49.99;101710.66;6200629;28;20051;-73
2023/06/15 08:35:28;;;;;;;4.30;1.17;;;;;;;19.67;49.05;101701.16;6185688;28;20583;-72
2023/06/15 08:38:29;;;;;;;3.03;1.50;;;;;;;19.71;50.30;101701.75;6201196;28;20046;-73
2023/06/15 08:41:31;;;;;;;3.05;1.67;;;;;;;19.79;49.39;101717.16;6204035;28;20050;-72
2023/06/15 08:44:33;;;;;;;2.90;1.63;;;;;;;19.92;49.45;101715.25;6205932;28;20461;-73
2023/06/15 08:47:36;;;;;;;1.90;1.20;;;;;;;19.94;49.92;101718.66;6206016;28;20062;-73
2023/06/15 08:50:39;;;;;;;3.67;2.00;;;;;;;19.97;47.56;101713.94;6203046;28;20440;-72
2023/06/15 08:53:45;;;;;;;3.50;2.10;;;;;;;20.02;50.03;101713.56;6198635;28;20050;-72
2023/06/15 08:56:46;;;;;;;3.28;1.55;;;;;;;20.31;47.01;101715.78;6205595;28;20050;-73
2023/06/15 08:59:48;;;;;;;2.55;1.60;;;;;;;20.34;47.95;101713.72;6204736;28;20469;-72
2023/06/15 09:02:56;;;;;;;1.90;1.48;;;;;;;20.30;46.17;101709.56;6205676;28;20435;-72
2023/06/15 09:05:57;;;;;;;6.00;1.42;;;;;;;20.42;43.46;101708.63;6205378;28;20439;-74
2023/06/15 09:08:59;;;;;;;2.97;1.35;;;;;;;20.52;43.55;101708.75;6196909;28;20046;-74
2023/06/15 09:12:00;;;;;;;3.03;1.80;;;;;;;20.50;44.63;101710.72;6204466;28;20359;-74
2023/06/15 09:15:01;;;;;;;7.40;3.15;;;;;;;20.51;43.08;101701.72;6205169;28;20462;-73
2023/06/15 09:18:05;;;;;;;4.13;2.28;;;;;;;20.45;44.06;101705.72;6205106;28;20066;-73
2023/06/15 09:21:12;;;;;;;2.28;1.20;;;;;;;20.54;39.91;101701.50;6204011;28;20517;-73
2023/06/15 09:24:13;;;;;;;1.88;1.10;;;;;;;20.46;40.79;101699.38;6198148;28;20057;-73
2023/06/15 09:27:15;;;;;;;1.67;1.27;;;;;;;20.48;42.40;101702.84;6194849;28;20050;-74
2023/06/15 09:30:17;;;;;;;1.70;1.20;;;;;;;20.49;43.00;101698.34;6188036;28;20062;-73
2023/06/15 09:33:20;;;;;;;3.00;1.40;;;;;;;20.74;40.86;101695.38;6180867;28;20193;-72
2023/06/15 09:36:22;;;;;;;2.90;1.60;;;;;;;20.74;44.24;101687.34;6195970;28;20046;-73
2023/06/15 09:39:24;;;;;;;2.53;1.52;;;;;;;20.89;43.34;101695.09;6180310;28;20069;-73
2023/06/15 09:42:26;;;;;;;4.55;1.40;;;;;;;20.91;42.27;101686.00;6179591;28;20055;-73
2023/06/15 09:45:27;;;;;;;2.67;1.35;;;;;;;21.03;39.77;101695.69;6180088;28;20155;-73
2023/06/15 09:48:31;;;;;;;3.53;1.55;;;;;;;21.16;40.40;101694.66;6180303;28;20051;-73
2023/06/15 09:51:36;;;;;;;1.65;1.20;;;;;;;21.26;40.37;101687.59;6179264;28;20194;-73
2023/06/15 09:54:39;;;;;;;1.75;1.25;;;;;;;21.28;40.91;101683.78;6181267;28;20050;-75
2023/06/15 09:57:42;;;;;;;2.90;1.85;;;;;;;21.31;39.90;101681.84;6179756;28;20051;-73
2023/06/15 10:00:44;;;;;;;3.22;1.58;;;;;;;21.40;38.09;101686.44;6179261;28;20459;-74
2023/06/15 10:03:52;;;;;;;6.05;1.40;;;;;;;21.46;36.97;101669.88;6185169;28;20336;-74
2023/06/15 10:07:00;;;;;;;2.53;1.40;;;;;;;21.42;37.96;101669.28;6196028;28;20054;-74
2023/06/15 10:10:02;;;;;;;2.15;1.35;;;;;;;21.48;41.43;101676.81;6203255;28;20710;-71
2023/06/15 10:13:08;;;;;;;1.33;1.13;;;;;;;21.59;40.07;101683.91;6204002;28;20054;-73
2023/06/15 10:16:12;;;;;;;2.10;1.60;;;;;;;21.72;38.62;101679.22;6203927;28;20050;-72
2023/06/15 10:19:16;;;;;;;2.35;1.40;;;;;;;21.91;40.35;101678.47;6203953;28;20061;-72
2023/06/15 10:22:19;;;;;;;2.72;1.70;;;;;;;22.20;38.65;101673.28;6203180;28;20054;-73
2023/06/15 10:25:21;;;;;;;2.13;1.42;;;;;;;22.35;39.29;101665.75;6180611;28;20051;-73
2023/06/15 10:28:23;;;;;;;2.05;1.42;;;;;;;22.32;37.79;101668.69;6189957;28;20057;-74
2023/06/15 10:31:30;;;;;;;3.30;1.48;;;;;;;22.19;38.33;101652.84;6202678;28;20061;-72
2023/06/15 10:34:41;;;;;;;2.33;1.83;;;;;;;22.16;38.91;101653.09;6203324;28;20141;-72
2023/06/15 10:37:49;;;;;;;2.58;1.67;;;;;;;22.27;36.29;101653.03;6202958;28;20447;-72
2023/06/15 10:40:52;;;;;;;3.90;1.80;;;;;;;22.47;38.19;101659.28;6202511;28;20466;-72
2023/06/15 10:43:58;;;;;;;2.58;1.50;;;;;;;22.44;38.83;101653.38;6203122;28;20058;-73
2023/06/15 10:47:06;;;;;;;3.30;1.85;;;;;;;22.39;37.74;101656.44;6201882;28;20506;-72
2023/06/15 10:50:15;;;;;;;2.17;1.50;;;;;;;22.48;40.02;101652.94;6193553;28;20078;-72
2023/06/15 10:53:24;;;;;;;2.70;1.42;;;;;;;22.43;40.57;101665.88;6190033;28;20042;-72
2023/06/15 10:56:27;;;;;;;;;;;;;;;22.36;39.34;101658.56;6196224;28;20089;-73
2023/06/15 10:59:42;;;;;;;3.03;1.70;;;;;;;22.56;37.86;101651.41;6192970;28;20326;-73
2023/06/15 11:02:56;;;;;;;1.85;1.40;;;;;;;22.47;37.67;101658.44;6184936;28;20054;-73
2023/06/15 11:06:14;;;;;;;1.63;1.13;;;;;;;22.41;38.86;101665.19;6179908;28;20057;-73
2023/06/15 11:09:18;;;;;;;2.78;1.33;;;;;;;22.37;37.53;101660.22;6188432;28;20355;-72
2023/06/15 11:12:36;;;;;;;3.30;1.60;;;;;;;22.37;36.81;101663.75;6193351;28;20218;-72
2023/06/15 11:15:38;;;;;;;3.92;1.70;;;;;;;22.39;36.86;101655.56;6190079;28;20057;-73
2023/06/15 11:19:13;;;;;;;3.58;1.48;;;;;;;22.48;38.06;101660.13;6196619;28;20053;-72
2023/06/15 11:22:25;;;;;;;5.00;2.17;;;;;;;22.48;36.96;101660.13;6194258;28;20691;-73
2023/06/15 11:25:29;;;;;;;3.85;1.90;;;;;;;22.50;35.78;101660.84;6195160;28;20431;-72
2023/06/15 11:28:34;;;;;;;3.30;1.80;;;;;;;22.49;34.93;101660.00;6178360;28;20051;-71
2023/06/15 11:31:36;;;;;;;3.13;2.22;;;;;;;22.52;36.51;101659.69;6177361;28;20047;-71
2023/06/15 11:34:38;;;;;;;5.85;1.77;;;;;;;22.82;36.81;101649.06;6193505;28;20057;-71
2023/06/15 11:37:41;;;;;;;2.47;1.60;;;;;;;23.07;35.15;101645.00;6198689;28;20038;-70
2023/06/15 11:40:46;;;;;;;3.17;1.80;;;;;;;23.09;34.66;101649.25;6194470;28;20062;-71
2023/06/15 11:43:49;;;;;;;5.63;1.70;;;;;;;23.04;34.12;101640.78;6196540;28;20050;-72
2023/06/15 11:46:53;;;;;;;2.92;1.67;;;;;;;22.90;34.96;101650.09;6200553;28;20325;-72
2023/06/15 11:49:58;;;;;;;3.28;1.38;;;;;;;22.83;35.46;101643.53;6191470;28;20145;-72
2023/06/15 11:53:02;;;;;;;2.13;1.30;;;;;;;22.83;38.54;101645.38;6193378;28;20058;-72
2023/06/15 11:56:04;;;;;;;3.95;1.50;;;;;;;22.70;37.20;101635.75;6198787;28;20046;-72
2023/06/15 11:59:06;;;;;;;3.33;1.55;;;;;;;22.63;37.37;101639.16;6193738;28;20152;-72
2023/06/15 12:02:08;;;;;;;2.80;1.80;;;;;;;22.64;38.02;101633.66;6198210;28;20054;-72
2023/06/15 12:05:10;;;;;;;3.17;1.33;;;;;;;22.64;37.29;101636.34;6194178;28;20470;-72
2023/06/15 12:08:13;;;;;;;5.85;1.95;;;;;;;22.73;36.08;101635.50;6193945;28;20355;-71
2023/06/15 12:11:15;;;;;;;2.65;1.67;;;;;;;22.66;38.04;101633.50;6198168;28;20453;-72
2023/06/15 12:14:20;;;;;;;7.22;1.77;;;;;;;22.60;35.33;101632.22;6199678;28;20141;-71
2023/06/15 12:17:27;;;;;;;2.88;1.60;;;;;;;22.52;36.77;101624.88;6202009;28;20095;-72
2023/06/15 12:20:29;;;;;;;2.58;1.40;;;;;;;22.51;36.86;101631.22;6198559;28;20042;-70
2023/06/15 12:23:33;;;;;;;2.25;1.60;;;;;;;22.57;36.36;101620.94;6201485;28;20046;-70
2023/06/15 12:26:35;;;;;;;4.28;1.73;;;;;;;22.56;35.88;101628.13;6194892;28;20047;-70
2023/06/15 12:29:36;;;;;;;3.25;1.50;;;;;;;22.51;36.90;101625.88;6188184;28;20440;-70
2023/06/15 12:32:43;;;;;;;6.85;1.85;;;;;;;22.52;36.98;101619.50;6182085;28;20058;-70
2023/06/15 12:35:44;;;;;;;3.80;1.75;;;;;;;22.56;36.95;101625.44;6202165;28;20133;-70
2023/06/15 12:38:49;;;;;;;2.75;1.52;;;;;;;22.65;37.35;101624.63;6195236;28;20057;-70
2023/06/15 12:41:51;;;;;;;4.13;1.30;;;;;;;22.68;37.14;101624.34;6204229;28;20058;-70
2023/06/15 12:44:52;;;;;;;3.67;1.85;;;;;;;22.80;37.81;101622.41;6199697;28;20058;-70
2023/06/15 12:47:54;;;;;;;3.75;1.95;;;;;;;22.82;38.38;101622.25;6202082;28;20056;-71
2023/06/15 12:50:55;;;;;;;4.05;1.95;;;;;;;22.78;38.37;101619.84;6205089;28;20129;-70
2023/06/15 12:53:58;;;;;;;2.08;1.40;;;;;;;22.71;37.02;101618.72;6185107;28;20050;-70
2023/06/15 12:56:59;;;;;;;3.70;2.22;;;;;;;22.66;39.12;101615.59;6188182;28;20046;-70
2023/06/15 13:00:01;;;;;;;2.38;1.40;;;;;;;22.68;37.04;101618.16;6204953;28;20046;-70
2023/06/15 13:03:05;;;;;;;6.03;2.00;;;;;;;22.75;38.26;101611.22;6205317;28;20042;-70
2023/06/15 13:06:07;;;;;;;4.07;1.67;;;;;;;22.76;36.68;101610.25;6196730;28;20050;-71
2023/06/15 13:09:09;;;;;;;3.30;1.92;;;;;;;22.85;37.68;101605.91;6195947;28;20747;-71
2023/06/15 13:12:11;;;;;;;3.65;1.73;;;;;;;23.05;39.95;101602.25;6198090;28;20049;-70
2023/06/15 13:15:13;;;;;;;2.38;1.48;;;;;;;23.24;36.63;101596.84;6196834;28;20153;-70
2023/06/15 13:18:14;;;;;;;2.80;1.65;;;;;;;23.31;36.76;101598.97;6194926;28;20047;-72
2023/06/15 13:21:16;;;;;;;3.83;1.50;;;;;;;23.29;36.57;101604.47;6194030;28;20119;-72
2023/06/15 13:24:19;;;;;;;2.75;1.75;;;;;;;23.18;35.54;101597.44;6201716;28;20046;-72
2023/06/15 13:27:21;;;;;;;3.33;1.77;;;;;;;23.18;36.67;101594.75;6199302;28;20047;-72
2023/06/15 13:30:23;;;;;;;4.03;1.70;;;;;;;23.14;36.40;101600.53;6195985;28;20058;-72
2023/06/15 13:33:25;;;;;;;5.38;2.20;;;;;;;23.02;37.25;101597.16;6204940;28;20088;-71
2023/06/15 13:36:26;;;;;;;5.95;2.10;;;;;;;22.95;37.33;101591.53;6198690;28;20086;-73
2023/06/15 13:39:29;;;;;;;3.60;1.50;;;;;;;22.89;37.60;101594.78;6198197;28;20057;-73
2023/06/15 13:42:31;;;;;;;3.03;2.00;;;;;;;23.01;37.25;101590.94;6199956;28;20054;-73
2023/06/15 13:45:32;;;;;;;2.03;1.80;;;;;;;23.46;37.37;101598.38;6201746;28;20051;-72
2023/06/15 13:48:34;;;;;;;4.30;1.63;;;;;;;23.65;37.45;101600.19;6202340;28;20039;-72
2023/06/15 13:51:36;;;;;;;2.30;1.30;;;;;;;23.57;37.06;101599.19;6197027;28;20051;-72
2023/06/15 13:54:39;;;;;;;3.33;1.73;;;;;;;23.46;37.61;101595.69;6202233;28;21348;-72
2023/06/15 13:57:40;;;;;;;2.55;1.52;;;;;;;23.40;36.57;101598.13;6202125;28;20046;-72
2023/06/15 14:00:42;;;;;;;2.55;1.65;;;;;;;23.38;35.56;101586.66;6202577;28;20370;-72
2023/06/15 14:03:44;;;;;;;2.40;1.67;;;;;;;23.26;36.05;101588.69;6199494;28;20054;-72
2023/06/15 14:06:45;;;;;;;3.38;1.70;;;;;;;23.15;35.50;101599.56;6201877;28;20058;-72
2023/06/15 14:09:49;;;;;;;2.97;1.45;;;;;;;22.98;37.05;101593.94;6196088;28;20658;-72